createdAt,value
2022-11-13T00:01:30.794Z,5.37
2022-11-13T00:04:00.660Z,5.41
2022-11-13T00:06:30.355Z,5.44
2022-11-13T00:09:00.293Z,5.46
2022-11-13T00:11:30.169Z,5.49
2022-11-13T00:13:59.958Z,5.53
2022-11-13T00:16:30.130Z,5.54
2022-11-13T00:18:59.530Z,5.55
2022-11-13T00:21:29.790Z,5.57
2022-11-13T00:23:59.067Z,5.58
2022-11-13T00:26:31.741Z,5.61
2022-11-13T00:29:03.802Z,5.62
2022-11-13T00:31:32.249Z,5.66
2022-11-13T00:34:19.617Z,5.68
2022-11-13T00:36:50.275Z,5.68
2022-11-13T00:39:20.166Z,5.75
2022-11-13T00:41:50.026Z,5.74
2022-11-13T00:44:20.003Z,5.75
2022-11-13T00:46:49.702Z,5.77
2022-11-13T00:49:19.541Z,5.78
2022-11-13T00:51:49.486Z,5.81
2022-11-13T00:54:19.517Z,5.82
2022-11-13T00:56:49.382Z,5.84
2022-11-13T00:59:19.149Z,5.86
2022-11-13T01:01:49.174Z,5.85
2022-11-13T01:04:19.001Z,5.87
2022-11-13T01:06:48.821Z,5.89
2022-11-13T01:09:18.917Z,5.89
2022-11-13T01:11:48.833Z,5.92
2022-11-13T01:14:18.770Z,5.93
2022-11-13T01:16:48.592Z,5.92
2022-11-13T01:19:18.675Z,5.94
2022-11-13T01:21:48.310Z,5.97
2022-11-13T01:24:18.201Z,5.97
2022-11-13T01:26:48.418Z,5.98
2022-11-13T01:29:18.359Z,6.02
2022-11-13T01:31:48.091Z,6.03
2022-11-13T01:34:18.190Z,6.06
2022-11-13T01:36:48.283Z,6.06
2022-11-13T01:39:18.141Z,6.07
2022-11-13T01:41:48.287Z,6.08
2022-11-13T01:44:20.225Z,6.10
2022-11-13T01:46:57.155Z,6.12
2022-11-13T01:49:41.319Z,6.15
2022-11-13T01:52:26.993Z,6.16
2022-11-13T01:55:11.605Z,6.17
2022-11-13T01:57:42.674Z,6.22
2022-11-13T02:00:13.634Z,6.24
2022-11-13T02:02:44.307Z,6.26
2022-11-13T02:05:14.427Z,6.28
2022-11-13T02:07:44.973Z,6.30
2022-11-13T02:10:15.272Z,6.34
2022-11-13T02:12:52.344Z,6.38
2022-11-13T02:15:31.695Z,6.42
2022-11-13T02:18:04.403Z,6.46
2022-11-13T02:20:55.023Z,6.47
2022-11-13T02:23:39.698Z,6.48
2022-11-13T02:26:12.621Z,6.47
2022-11-13T02:28:42.807Z,6.49
2022-11-13T02:31:14.497Z,6.53
2022-11-13T02:33:42.639Z,6.54
2022-11-13T02:36:13.865Z,6.56
2022-11-13T02:38:45.618Z,6.58
2022-11-13T02:41:15.671Z,6.62
2022-11-13T02:43:46.123Z,6.64
2022-11-13T02:46:16.316Z,6.63
2022-11-13T02:48:46.656Z,6.64
2022-11-13T02:51:16.709Z,6.72
2022-11-13T02:53:46.771Z,6.74
2022-11-13T02:56:17.159Z,6.75
2022-11-13T02:58:47.191Z,6.79
2022-11-13T03:01:15.689Z,6.81
2022-11-13T03:03:59.272Z,6.80
2022-11-13T03:06:28.199Z,6.83
2022-11-13T03:08:57.917Z,6.84
2022-11-13T03:11:26.393Z,6.86
2022-11-13T03:13:55.288Z,6.88
2022-11-13T03:16:23.239Z,7.00
2022-11-13T03:18:51.602Z,6.99
2022-11-13T03:21:19.980Z,7.01
2022-11-13T03:23:48.592Z,7.09
2022-11-13T03:26:18.088Z,7.08
2022-11-13T03:28:46.293Z,7.11
2022-11-13T03:31:13.919Z,7.10
2022-11-13T03:33:42.345Z,7.11
2022-11-13T03:36:10.535Z,7.13
2022-11-13T03:38:38.893Z,7.16
2022-11-13T03:41:07.326Z,7.15
2022-11-13T03:43:35.725Z,7.18
2022-11-13T03:46:04.212Z,7.25
2022-11-13T03:48:33.432Z,7.29
2022-11-13T03:51:02.330Z,7.31
2022-11-13T03:53:29.467Z,7.32
2022-11-13T03:55:58.453Z,7.33
2022-11-13T03:58:26.918Z,7.34
2022-11-13T04:00:56.851Z,7.33
2022-11-13T04:03:26.038Z,7.35
2022-11-13T04:05:54.635Z,7.34
2022-11-13T04:08:22.909Z,7.32
2022-11-13T04:10:51.340Z,7.33
2022-11-13T04:13:19.698Z,7.40
2022-11-13T04:15:51.293Z,7.46
2022-11-13T04:18:19.528Z,7.49
2022-11-13T04:20:48.002Z,7.50
2022-11-13T04:23:18.012Z,7.46
2022-11-13T04:25:49.358Z,7.46
2022-11-13T04:28:19.361Z,7.51
2022-11-13T04:30:55.380Z,7.50
2022-11-13T04:33:25.413Z,7.50
2022-11-13T04:35:55.435Z,7.46
2022-11-13T04:38:25.604Z,7.45
2022-11-13T04:41:15.875Z,7.45
2022-11-13T04:43:45.896Z,7.51
2022-11-13T04:46:15.902Z,7.50
2022-11-13T04:48:45.910Z,7.45
2022-11-13T04:51:16.071Z,7.44
2022-11-13T04:53:46.087Z,7.48
2022-11-13T04:56:16.128Z,7.46
2022-11-13T04:58:46.172Z,7.45
2022-11-13T05:01:16.920Z,7.53
2022-11-13T05:03:46.961Z,7.64
2022-11-13T05:06:17.069Z,7.71
2022-11-13T05:08:47.636Z,7.67
2022-11-13T05:11:17.657Z,7.60
2022-11-13T05:13:47.847Z,7.54
2022-11-13T05:16:17.918Z,7.55
2022-11-13T05:18:48.343Z,7.52
2022-11-13T05:21:18.863Z,7.49
2022-11-13T05:23:48.938Z,7.49
2022-11-13T05:26:19.823Z,7.50
2022-11-13T05:28:49.832Z,7.58
2022-11-13T05:31:19.841Z,7.70
2022-11-13T05:33:49.945Z,7.65
2022-11-13T05:36:21.836Z,7.65
2022-11-13T05:38:52.255Z,7.64
2022-11-13T05:41:23.975Z,7.62
2022-11-13T05:43:59.161Z,7.60
2022-11-13T05:46:30.943Z,7.61
2022-11-13T05:49:02.515Z,7.75
2022-11-13T05:51:35.454Z,7.70
2022-11-13T05:54:04.023Z,7.67
2022-11-13T05:56:36.649Z,7.71
2022-11-13T05:59:07.506Z,7.65
2022-11-13T06:01:40.924Z,7.61
2022-11-13T06:04:11.177Z,7.55
2022-11-13T06:06:42.498Z,7.52
2022-11-13T06:09:17.376Z,7.51
2022-11-13T06:11:47.477Z,7.67
2022-11-13T06:14:17.604Z,7.83
2022-11-13T06:16:47.866Z,7.81
2022-11-13T06:19:17.979Z,7.74
2022-11-13T06:21:48.101Z,7.69
2022-11-13T06:24:18.142Z,7.68
2022-11-13T06:26:48.330Z,7.70
2022-11-13T06:29:16.930Z,7.77
2022-11-13T06:31:45.194Z,7.81
2022-11-13T06:34:13.547Z,7.75
2022-11-13T06:36:41.948Z,7.72
2022-11-13T06:39:10.742Z,7.70
2022-11-13T06:41:39.963Z,7.71
2022-11-13T06:44:07.727Z,7.69
2022-11-13T06:46:36.014Z,7.88
2022-11-13T06:49:04.258Z,7.88
2022-11-13T06:51:32.802Z,7.99
2022-11-13T06:54:01.508Z,8.01
2022-11-13T06:56:29.843Z,8.04
2022-11-13T06:58:57.987Z,7.95
2022-11-13T07:01:27.364Z,8.03
2022-11-13T07:03:55.283Z,7.98
2022-11-13T07:06:25.351Z,8.01
2022-11-13T07:08:54.731Z,8.09
2022-11-13T07:11:24.484Z,8.01
2022-11-13T07:13:54.541Z,8.06
2022-11-13T07:16:23.084Z,8.09
2022-11-13T07:18:54.683Z,8.09
2022-11-13T07:21:23.179Z,8.11
2022-11-13T07:23:52.879Z,8.31
2022-11-13T07:26:24.018Z,8.27
2022-11-13T07:28:53.305Z,8.20
2022-11-13T07:31:23.345Z,8.29
2022-11-13T07:33:53.039Z,8.23
2022-11-13T07:36:23.283Z,8.23
2022-11-13T07:38:56.640Z,8.11
2022-11-13T07:41:26.577Z,8.09
2022-11-13T07:43:56.658Z,8.17
2022-11-13T07:46:23.821Z,8.19
2022-11-13T07:48:53.607Z,8.16
2022-11-13T07:51:23.420Z,8.23
2022-11-13T07:53:53.333Z,8.34
2022-11-13T07:56:25.517Z,8.41
2022-11-13T07:58:55.047Z,8.31
2022-11-13T08:01:25.670Z,8.42
2022-11-13T08:03:55.552Z,8.34
2022-11-13T08:06:27.780Z,8.30
2022-11-13T08:08:57.535Z,8.46
2022-11-13T08:11:27.511Z,8.53
2022-11-13T08:13:57.628Z,8.45
2022-11-13T08:16:31.327Z,8.36
2022-11-13T08:19:02.083Z,8.45
2022-11-13T08:21:31.496Z,8.44
2022-11-13T08:24:00.967Z,8.49
2022-11-13T08:26:30.803Z,8.61
2022-11-13T08:29:01.139Z,8.59
2022-11-13T08:31:32.078Z,8.61
2022-11-13T08:34:03.479Z,8.67
2022-11-13T08:36:33.529Z,8.60
2022-11-13T08:39:03.737Z,8.68
2022-11-13T08:41:34.145Z,8.72
2022-11-13T08:44:04.720Z,8.63
2022-11-13T08:46:35.019Z,8.83
2022-11-13T08:49:05.454Z,8.79
2022-11-13T08:51:35.477Z,8.74
2022-11-13T08:54:05.641Z,8.77
2022-11-13T08:56:35.685Z,8.81
2022-11-13T08:59:06.040Z,8.81
2022-11-13T09:01:36.212Z,8.86
2022-11-13T09:04:06.371Z,8.81
2022-11-13T09:06:36.615Z,8.88
2022-11-13T09:09:07.822Z,8.81
2022-11-13T09:11:38.403Z,9.03
2022-11-13T09:14:08.521Z,8.92
2022-11-13T09:16:38.651Z,8.85
2022-11-13T09:19:09.080Z,8.86
2022-11-13T09:21:39.331Z,8.87
2022-11-13T09:24:09.499Z,8.79
2022-11-13T09:26:39.688Z,8.74
2022-11-13T09:29:08.083Z,8.82
2022-11-13T09:31:39.631Z,8.87
2022-11-13T09:34:08.787Z,8.88
2022-11-13T09:36:37.375Z,8.84
2022-11-13T09:39:08.179Z,8.86
2022-11-13T09:41:46.866Z,8.92
2022-11-13T09:44:41.886Z,8.91
2022-11-13T09:47:29.160Z,8.93
2022-11-13T09:50:22.255Z,9.02
2022-11-13T09:52:55.071Z,9.02
2022-11-13T09:55:59.435Z,9.05
2022-11-13T09:59:00.897Z,9.12
2022-11-13T10:02:41.609Z,9.22
2022-11-13T10:06:01.365Z,9.24
2022-11-13T10:09:01.505Z,9.29
2022-11-13T10:11:47.487Z,9.40
2022-11-13T10:14:35.852Z,9.42
2022-11-13T10:17:40.559Z,9.50
2022-11-13T10:20:47.785Z,9.46
2022-11-13T10:23:34.643Z,9.41
2022-11-13T10:26:21.956Z,9.45
2022-11-13T10:29:13.705Z,9.48
2022-11-13T10:31:52.377Z,9.35
2022-11-13T10:34:22.281Z,9.37
2022-11-13T10:37:27.641Z,9.43
2022-11-13T10:39:57.702Z,9.36
2022-11-13T10:42:39.501Z,9.36
2022-11-13T10:45:23.278Z,9.56
2022-11-13T10:48:08.706Z,9.45
2022-11-13T10:50:40.589Z,9.42
2022-11-13T10:53:19.938Z,9.42
2022-11-13T10:55:59.286Z,9.49
2022-11-13T10:58:27.285Z,9.52
2022-11-13T11:00:55.565Z,9.67
2022-11-13T11:03:27.275Z,9.86
2022-11-13T11:06:02.651Z,9.86
2022-11-13T11:08:36.490Z,9.73
2022-11-13T11:11:37.500Z,9.72
2022-11-13T11:14:32.566Z,9.89
2022-11-13T11:17:07.246Z,10.02
2022-11-13T11:19:44.902Z,10.26
2022-11-13T11:22:30.587Z,10.48
2022-11-13T11:25:30.808Z,10.50
2022-11-13T11:28:21.076Z,10.31
2022-11-13T11:31:42.828Z,10.17
2022-11-13T11:34:45.068Z,9.98
2022-11-13T11:42:40.688Z,9.69
2022-11-13T11:45:26.642Z,9.65
2022-11-13T11:48:00.713Z,9.93
2022-11-13T11:50:51.877Z,9.83
2022-11-13T11:54:07.263Z,9.88
2022-11-13T11:56:55.829Z,9.88
2022-11-13T12:00:06.665Z,9.92
2022-11-13T12:03:04.571Z,9.88
2022-11-13T12:06:31.480Z,9.78
2022-11-13T12:09:36.445Z,9.97
2022-11-13T12:12:54.143Z,10.05
2022-11-13T12:15:52.350Z,10.28
2022-11-13T12:18:38.375Z,10.22
2022-11-13T12:21:25.245Z,10.22
2022-11-13T12:24:18.725Z,10.19
2022-11-13T12:27:16.458Z,10.10
2022-11-13T12:30:22.796Z,10.13
2022-11-13T12:34:01.272Z,10.17
2022-11-13T12:36:33.547Z,10.06
2022-11-13T12:39:36.798Z,10.10
2022-11-13T12:42:34.497Z,10.16
2022-11-13T12:45:33.800Z,10.25
2022-11-13T12:48:18.854Z,10.41
2022-11-13T12:51:22.588Z,10.50
2022-11-13T12:53:54.502Z,10.45
2022-11-13T12:56:27.805Z,10.34
2022-11-13T12:59:31.539Z,10.24
2022-11-13T13:03:09.249Z,10.21
2022-11-13T13:06:24.707Z,10.32
2022-11-13T13:09:18.963Z,10.05
2022-11-13T13:12:01.246Z,10.07
2022-11-13T13:15:00.710Z,10.00
2022-11-13T13:17:28.845Z,10.02
2022-11-13T13:20:34.498Z,10.03
2022-11-13T13:23:10.094Z,10.14
2022-11-13T13:25:41.579Z,10.17
2022-11-13T13:28:24.897Z,10.22
2022-11-13T13:31:37.378Z,9.99
2022-11-13T13:34:54.111Z,9.98
2022-11-13T13:38:18.153Z,9.87
2022-11-13T13:41:12.044Z,9.83
2022-11-13T13:44:32.925Z,9.72
2022-11-13T13:47:28.762Z,9.61
2022-11-13T13:50:04.873Z,9.68
2022-11-13T13:52:38.034Z,9.65
2022-11-13T13:55:28.174Z,9.54
2022-11-13T13:58:08.168Z,9.56
2022-11-13T14:00:53.280Z,9.72
2022-11-13T14:03:30.050Z,9.78
2022-11-13T14:06:22.034Z,10.01
2022-11-13T14:08:52.201Z,9.78
2022-11-13T14:11:29.802Z,9.61
2022-11-13T14:14:22.089Z,9.74
2022-11-13T14:16:54.253Z,9.73
2022-11-13T14:19:24.998Z,9.64
2022-11-13T14:22:08.653Z,9.48
2022-11-13T14:25:26.837Z,9.28
2022-11-13T14:27:57.191Z,9.25
2022-11-13T14:30:30.958Z,9.23
2022-11-13T14:33:08.638Z,9.18
2022-11-13T14:35:41.169Z,9.20
2022-11-13T14:38:26.458Z,9.16
2022-11-13T14:40:58.731Z,8.99
2022-11-13T14:43:34.406Z,8.91
2022-11-13T14:46:28.097Z,8.78
2022-11-13T14:48:57.938Z,8.77
2022-11-13T14:51:34.563Z,8.74
2022-11-13T14:54:08.869Z,8.62
2022-11-13T14:56:43.180Z,8.63
2022-11-13T14:59:28.420Z,8.63
2022-11-13T15:01:59.679Z,8.48
2022-11-13T15:04:30.046Z,8.56
2022-11-13T15:07:18.361Z,8.50
2022-11-13T15:09:50.631Z,8.42
2022-11-13T15:12:22.461Z,8.45
2022-11-13T15:14:52.764Z,8.39
2022-11-13T15:17:24.364Z,8.27
2022-11-13T15:19:55.756Z,8.23
2022-11-13T15:22:27.612Z,8.14
2022-11-13T15:24:58.463Z,8.25
2022-11-13T15:27:29.451Z,8.14
2022-11-13T15:29:59.632Z,8.00
2022-11-13T15:32:29.896Z,7.92
2022-11-13T15:34:59.998Z,7.71
2022-11-13T15:37:28.439Z,7.60
2022-11-13T15:39:56.898Z,7.43
2022-11-13T15:42:35.259Z,7.37
2022-11-13T15:45:06.581Z,7.25
2022-11-13T15:47:37.979Z,7.13
2022-11-13T15:50:13.771Z,6.99
2022-11-13T15:52:52.546Z,6.88
2022-11-13T15:55:32.185Z,6.80
2022-11-13T15:58:02.930Z,6.69
2022-11-13T16:00:31.084Z,6.76
2022-11-13T16:03:00.923Z,6.74
2022-11-13T16:05:30.740Z,6.63
2022-11-13T16:08:00.642Z,6.57
2022-11-13T16:10:30.481Z,6.58
2022-11-13T16:13:00.405Z,6.51
2022-11-13T16:15:30.161Z,6.71
2022-11-13T16:18:02.243Z,6.72
2022-11-13T16:20:31.466Z,6.73
2022-11-13T16:23:02.461Z,6.75
2022-11-13T16:25:33.936Z,6.63
2022-11-13T16:28:02.755Z,6.58
2022-11-13T16:30:31.538Z,6.61
2022-11-13T16:33:05.876Z,6.73
2022-11-13T16:35:36.972Z,6.73
2022-11-13T16:38:15.458Z,6.63
2022-11-13T16:40:45.612Z,6.56
2022-11-13T16:43:14.913Z,6.70
2022-11-13T16:45:44.900Z,6.74
2022-11-13T16:48:16.497Z,6.67
2022-11-13T16:50:46.290Z,6.59
2022-11-13T16:53:16.115Z,6.70
2022-11-13T16:55:45.852Z,6.69
2022-11-13T16:58:15.766Z,6.63
2022-11-13T17:00:45.855Z,6.46
2022-11-13T17:03:15.575Z,6.36
2022-11-13T17:05:45.547Z,6.43
2022-11-13T17:08:15.380Z,6.37
2022-11-13T17:10:45.278Z,6.29
2022-11-13T17:13:15.311Z,6.22
2022-11-13T17:15:44.999Z,6.30
2022-11-13T17:18:15.494Z,6.39
2022-11-13T17:20:45.227Z,6.28
2022-11-13T17:23:16.230Z,6.18
2022-11-13T17:25:47.726Z,6.20
2022-11-13T17:28:16.596Z,6.13
2022-11-13T17:30:46.735Z,6.11
2022-11-13T17:33:17.541Z,5.97
2022-11-13T17:35:55.426Z,5.96
2022-11-13T17:38:27.229Z,5.98
2022-11-13T17:40:55.938Z,5.92
2022-11-13T17:43:25.657Z,5.95
2022-11-13T17:45:55.486Z,5.77
2022-11-13T17:48:25.572Z,5.72
2022-11-13T17:51:03.436Z,5.60
2022-11-13T17:53:32.499Z,5.64
2022-11-13T17:56:05.297Z,5.71
2022-11-13T17:58:44.376Z,5.66
2022-11-13T18:01:22.059Z,5.73
2022-11-13T18:03:56.523Z,5.67
2022-11-13T18:06:26.900Z,5.69
2022-11-13T18:08:57.048Z,5.77
2022-11-13T18:11:30.521Z,5.72
2022-11-13T18:13:58.058Z,5.75
2022-11-13T18:16:34.038Z,5.67
2022-11-13T18:19:06.946Z,5.64
2022-11-13T18:21:38.041Z,5.61
2022-11-13T18:24:15.360Z,5.60
2022-11-13T18:26:46.132Z,5.75
2022-11-13T18:29:16.033Z,5.59
2022-11-13T18:31:46.208Z,5.49
2022-11-13T18:34:22.111Z,5.54
2022-11-13T18:36:51.405Z,5.37
2022-11-13T18:39:21.676Z,5.35
2022-11-13T18:41:50.762Z,5.38
2022-11-13T18:44:21.527Z,5.20
2022-11-13T18:46:51.559Z,5.22
2022-11-13T18:49:22.075Z,5.19
2022-11-13T18:51:49.327Z,5.27
2022-11-13T18:54:19.756Z,5.27
2022-11-13T18:56:49.393Z,5.25
2022-11-13T18:59:19.611Z,5.33
2022-11-13T19:01:49.108Z,5.41
2022-11-13T19:04:23.605Z,5.45
2022-11-13T19:06:53.774Z,5.44
2022-11-13T19:09:23.939Z,5.37
2022-11-13T19:11:54.897Z,5.34
2022-11-13T19:14:24.696Z,5.45
2022-11-13T19:16:54.502Z,5.49
2022-11-13T19:19:25.108Z,5.39
2022-11-13T19:21:54.742Z,5.48
2022-11-13T19:24:22.605Z,5.41
2022-11-13T19:26:52.422Z,5.39
2022-11-13T19:29:25.392Z,5.35
2022-11-13T19:31:54.891Z,5.60
2022-11-13T19:34:23.283Z,5.61
2022-11-13T19:36:53.245Z,5.54
2022-11-13T19:39:21.067Z,5.44
2022-11-13T19:41:50.754Z,5.33
2022-11-13T19:44:20.548Z,5.29
2022-11-13T19:46:53.784Z,5.23
2022-11-13T19:49:25.347Z,5.22
2022-11-13T19:51:56.707Z,5.16
2022-11-13T19:54:26.827Z,5.11
2022-11-13T19:56:57.212Z,5.05
2022-11-13T19:59:27.364Z,4.95
2022-11-13T20:01:57.481Z,4.94
2022-11-13T20:04:27.708Z,4.87
2022-11-13T20:06:57.831Z,4.77
2022-11-13T20:09:29.728Z,4.74
2022-11-13T20:11:59.798Z,4.81
2022-11-13T20:14:33.126Z,4.74
2022-11-13T20:17:04.360Z,4.86
2022-11-13T20:19:32.726Z,4.97
2022-11-13T20:22:01.135Z,5.01
2022-11-13T20:24:29.625Z,5.09
2022-11-13T20:27:00.229Z,5.10
2022-11-13T20:29:32.464Z,5.01
2022-11-13T20:32:02.764Z,5.04
2022-11-13T20:34:32.845Z,5.13
2022-11-13T20:37:03.016Z,5.02
2022-11-13T20:39:33.188Z,5.15
2022-11-13T20:42:03.601Z,5.13
2022-11-13T20:44:34.315Z,5.01
2022-11-13T20:47:04.616Z,5.00
2022-11-13T20:49:34.795Z,5.05
2022-11-13T20:52:07.149Z,5.01
2022-11-13T20:54:37.330Z,5.08
2022-11-13T20:57:07.425Z,4.91
2022-11-13T20:59:37.504Z,4.97
2022-11-13T21:02:10.061Z,4.98
2022-11-13T21:04:40.202Z,4.97
2022-11-13T21:07:10.422Z,4.89
2022-11-13T21:09:40.566Z,4.84
2022-11-13T21:12:14.037Z,4.80
2022-11-13T21:14:46.963Z,4.77
2022-11-13T21:17:17.128Z,4.71
2022-11-13T21:19:45.814Z,4.71
2022-11-13T21:22:14.050Z,4.80
2022-11-13T21:24:42.496Z,4.67
2022-11-13T21:27:11.103Z,4.65
2022-11-13T21:29:39.267Z,4.62
2022-11-13T21:32:09.881Z,4.67
2022-11-13T21:34:41.114Z,4.57
2022-11-13T21:37:12.573Z,4.58
2022-11-13T21:39:42.711Z,4.55
2022-11-13T21:42:16.695Z,4.44
2022-11-13T21:44:47.224Z,4.44
2022-11-13T21:47:17.350Z,4.58
2022-11-13T21:49:47.530Z,4.55
2022-11-13T21:52:18.224Z,4.53
2022-11-13T21:54:48.298Z,4.55
2022-11-13T21:57:19.203Z,4.56
2022-11-13T21:59:49.482Z,4.65
2022-11-13T22:02:19.742Z,4.63
2022-11-13T22:04:51.093Z,4.54
2022-11-13T22:07:21.299Z,4.59
2022-11-13T22:09:53.944Z,4.68
2022-11-13T22:12:24.579Z,4.67
2022-11-13T22:14:54.674Z,4.61
2022-11-13T22:17:24.860Z,4.76
2022-11-13T22:19:55.017Z,4.73
2022-11-13T22:22:25.575Z,4.64
2022-11-13T22:24:55.810Z,4.66
2022-11-13T22:27:26.268Z,4.62
2022-11-13T22:29:56.555Z,4.64
2022-11-13T22:32:27.715Z,4.62
2022-11-13T22:34:57.908Z,4.61
2022-11-13T22:37:27.969Z,4.61
2022-11-13T22:39:58.078Z,4.60
2022-11-13T22:42:28.194Z,4.67
2022-11-13T22:44:58.335Z,4.64
2022-11-13T22:47:28.429Z,4.66
2022-11-13T22:50:00.675Z,4.61
2022-11-13T22:52:30.974Z,4.52
2022-11-13T22:55:01.202Z,4.65
2022-11-13T22:57:32.578Z,4.64
2022-11-13T23:00:11.886Z,4.63
2022-11-13T23:02:47.073Z,4.66
2022-11-13T23:05:16.798Z,4.61
2022-11-13T23:07:45.157Z,4.68
2022-11-13T23:10:13.817Z,4.83
2022-11-13T23:12:43.044Z,4.68
2022-11-13T23:15:10.985Z,4.71
2022-11-13T23:17:38.975Z,4.63
2022-11-13T23:20:08.782Z,4.72
2022-11-13T23:22:38.863Z,4.78
2022-11-13T23:25:08.376Z,4.81
2022-11-13T23:27:35.862Z,4.96
2022-11-13T23:30:05.213Z,4.84
2022-11-13T23:32:32.813Z,4.87
2022-11-13T23:35:01.143Z,4.83
2022-11-13T23:37:29.788Z,4.84
2022-11-13T23:39:58.286Z,4.74
2022-11-13T23:42:45.691Z,4.63
2022-11-13T23:45:16.041Z,4.63
2022-11-13T23:47:46.380Z,4.65
2022-11-13T23:50:17.089Z,4.67
2022-11-13T23:52:49.407Z,4.73
2022-11-13T23:55:21.517Z,4.63
2022-11-13T23:58:04.905Z,4.59
